Terminal Aerodrome Forecast
Issued by NWS

Home | Current Version | Previous Version | Graphics & Text | Print | Product List | Glossary On
Versions: 1 2 3 4 5 6 7 8 9 10 11 12 13 14 15 16 17 18 19 20 21 22 23 24 25 26 27 28 29 30 31
148
FTUS43 KABR 241140 AAB
TAFATY
TAF AMD
KATY 241140Z 2412/2512 19008KT P6SM VCSH OVC008
     FM241500 21010KT P6SM -RA OVC008
     FM241800 23010KT 5SM RA BR OVC008
     FM242200 27011KT P6SM -RA OVC010
     FM250000 32009KT P6SM OVC005=

USA.gov is the U.S. government's official web portal to all federal, state and local government web resources and services.